| time (UTC) | temp F | wind direction | speed MPH | gust MPH | rain 1hr in | rain 24hr in | rain mn in | humidity % | barometer mb |
| 20260905154535 | 64 | 26 | 2.0 | 8.0 | 0.01 | 0.45 | 0.02 | 51 | 1015.2 |
| 20260905153534 | 64 | 50 | 4.0 | 17.0 | 0.01 | 0.45 | 0.02 | 51 | 1014.9 |
| 20260905152554 | 64 | 12 | 3.0 | 11.0 | 0.01 | 0.46 | 0.02 | 51 | 1014.5 |
| 20260905151553 | 64 | 65 | 2.0 | 6.0 | 0.01 | 0.49 | 0.02 | 50 | 1014.5 |
| 20260905150528 | 64 | 21 | 3.0 | 10.0 | 0.01 | 0.49 | 0.01 | 50 | 1014.2 |
| 20260905145528 | 64 | 27 | 4.0 | 11.0 | 0.01 | 0.51 | 0.01 | 50 | 1014.0 |
| 20260905144525 | 65 | 39 | 3.0 | 9.0 | 0.01 | 0.52 | 0.01 | 50 | 1013.8 |
| 20260905143523 | 65 | 19 | 3.0 | 8.0 | 0.01 | 0.51 | 0.01 | 50 | 1013.8 |
| 20260905142543 | 65 | 31 | 3.0 | 9.0 | 0.01 | 0.51 | 0.01 | 50 | 1013.6 |
| 20260905141519 | 65 | 41 | 3.0 | 13.0 | 0.01 | 0.52 | 0.00 | 49 | 1013.4 |
| 20260905140518 | 65 | 58 | 3.0 | 8.0 | 0.01 | 0.54 | 0.00 | 49 | 1013.2 |
| 20260905135537 | 66 | 18 | 2.0 | 4.0 | 0.02 | 0.54 | 0.54 | 49 | 1012.9 |
| 20260905134534 | 66 | 56 | 3.0 | 7.0 | 0.02 | 0.54 | 0.54 | 49 | 1012.7 |
| 20260905133614 | 66 | 38 | 2.0 | 8.0 | 0.02 | 0.53 | 0.53 | 49 | 1012.5 |
| 20260905132554 | 66 | 49 | 3.0 | 8.0 | 0.02 | 0.53 | 0.53 | 49 | 1012.4 |
| 20260905131529 | 67 | 45 | 3.0 | 10.0 | 0.01 | 0.54 | 0.53 | 49 | 1012.2 |
| 20260905130532 | 67 | 61 | 3.0 | 8.0 | 0.01 | 0.54 | 0.52 | 48 | 1012.1 |
| 20260905125524 | 67 | 22 | 4.0 | 11.0 | 0.01 | 0.54 | 0.52 | 48 | 1011.9 |
| 20260905124523 | 67 | 68 | 3.0 | 7.0 | 0.01 | 0.54 | 0.52 | 48 | 1011.8 |
| 20260905123521 | 68 | 69 | 3.0 | 10.0 | 0.01 | 0.53 | 0.52 | 48 | 1011.6 |
| 20260905122519 | 68 | 61 | 2.0 | 9.0 | 0.01 | 0.53 | 0.52 | 48 | 1011.3 |
| 20260905121522 | 68 | 106 | 3.0 | 6.0 | 0.01 | 0.53 | 0.52 | 47 | 1011.3 |
| 20260905120540 | 69 | 110 | 3.0 | 7.0 | 0.00 | 0.53 | 0.51 | 47 | 1011.0 |
| 20260905115540 | 69 | 63 | 3.0 | 13.0 | 0.00 | 0.52 | 0.51 | 47 | 1011.0 |
| 20260905114532 | 69 | 78 | 3.0 | 10.0 | 0.00 | 0.52 | 0.51 | 47 | 1010.8 |
| 20260905113530 | 70 | 96 | 3.0 | 9.0 | 0.00 | 0.52 | 0.51 | 47 | 1010.5 |
| 20260905112529 | 70 | 112 | 5.0 | 15.0 | 0.00 | 0.53 | 0.51 | 47 | 1010.4 |
| 20260905111532 | 70 | 104 | 3.0 | 11.0 | 0.00 | 0.54 | 0.51 | 47 | 1010.2 |
| 20260905110525 | 71 | 79 | 3.0 | 9.0 | 0.00 | 0.54 | 0.51 | 47 | 1010.1 |
| 20260905105523 | 71 | 57 | 3.0 | 11.0 | 0.00 | 0.54 | 0.51 | 47 | 1009.8 |
| 20260905104521 | 71 | 91 | 3.0 | 15.0 | 0.00 | 0.55 | 0.51 | 47 | 1009.6 |
| 20260905103519 | 71 | 62 | 4.0 | 14.0 | 0.00 | 0.55 | 0.51 | 47 | 1009.5 |
| 20260905102517 | 71 | 124 | 3.0 | 9.0 | 0.00 | 0.55 | 0.51 | 47 | 1009.3 |
| 20260905101536 | 71 | 118 | 4.0 | 17.0 | 0.00 | 0.55 | 0.51 | 47 | 1009.1 |
| 20260905100539 | 71 | 83 | 5.0 | 11.0 | 0.00 | 0.55 | 0.51 | 47 | 1009.0 |
| 20260905095537 | 71 | 95 | 4.0 | 13.0 | 0.00 | 0.55 | 0.51 | 47 | 1008.6 |
| 20260905094530 | 71 | 79 | 5.0 | 13.0 | 0.00 | 0.55 | 0.51 | 47 | 1008.4 |
| 20260905093533 | 71 | 103 | 4.0 | 17.0 | 0.00 | 0.55 | 0.51 | 47 | 1008.3 |
| 20260905092547 | 71 | 107 | 6.0 | 16.0 | 0.00 | 0.55 | 0.51 | 47 | 1008.0 |
| 20260905091525 | 71 | 102 | 5.0 | 14.0 | 0.00 | 0.55 | 0.51 | 47 | 1007.7 |
| 20260905090528 | 71 | 112 | 4.0 | 11.0 | 0.00 | 0.55 | 0.51 | 47 | 1007.3 |
| 20260905085526 | 71 | 105 | 5.0 | 14.0 | 0.00 | 0.55 | 0.51 | 47 | 1007.1 |
| 20260905084519 | 71 | 82 | 7.0 | 17.0 | 0.00 | 0.55 | 0.51 | 47 | 1006.8 |
| 20260905083522 | 71 | 96 | 6.0 | 13.0 | 0.00 | 0.55 | 0.51 | 47 | 1006.7 |
| 20260905082536 | 71 | 107 | 6.0 | 16.0 | 0.00 | 0.55 | 0.51 | 47 | 1006.8 |
| 20260905081534 | 71 | 101 | 6.0 | 22.0 | 0.00 | 0.55 | 0.51 | 47 | 1006.6 |
| 20260905080552 | 71 | 94 | 7.0 | 14.0 | 0.00 | 0.55 | 0.51 | 47 | 1006.7 |
| 20260905075530 | 71 | 102 | 6.0 | 14.0 | 0.00 | 0.55 | 0.51 | 47 | 1006.5 |
| 20260905074548 | 71 | 116 | 7.0 | 17.0 | 0.00 | 0.55 | 0.51 | 48 | 1006.3 |
| 20260905073526 | 71 | 97 | 7.0 | 15.0 | 0.00 | 0.55 | 0.51 | 48 | 1006.3 |
| 20260905072524 | 71 | 104 | 5.0 | 10.0 | 0.00 | 0.55 | 0.51 | 48 | 1006.2 |
| 20260905071527 | 71 | 108 | 5.0 | 13.0 | 0.00 | 0.55 | 0.51 | 48 | 1006.1 |
| 20260905070521 | 71 | 105 | 6.0 | 16.0 | 0.00 | 0.55 | 0.51 | 48 | 1006.1 |
| 20260905065524 | 71 | 100 | 6.0 | 16.0 | 0.00 | 0.55 | 0.51 | 48 | 1006.1 |
| 20260905064517 | 71 | 106 | 6.0 | 21.0 | 0.00 | 0.55 | 0.51 | 48 | 1005.9 |
| 20260905063536 | 71 | 102 | 7.0 | 18.0 | 0.00 | 0.54 | 0.50 | 48 | 1005.8 |
| 20260905062534 | 71 | 113 | 6.0 | 15.0 | 0.00 | 0.54 | 0.50 | 48 | 1005.6 |
| 20260905061532 | 71 | 95 | 7.0 | 17.0 | 0.00 | 0.54 | 0.50 | 48 | 1005.4 |
| 20260905060530 | 71 | 102 | 9.0 | 18.0 | 0.00 | 0.54 | 0.50 | 48 | 1005.2 |
| 20260905055609 | 71 | 106 | 8.0 | 17.0 | 0.00 | 0.54 | 0.50 | 49 | 1004.9 |
| 20260905054531 | 71 | 105 | 9.0 | 23.0 | 0.00 | 0.54 | 0.50 | 49 | 1004.7 |
| 20260905053525 | 71 | 99 | 7.0 | 19.0 | 0.00 | 0.54 | 0.50 | 49 | 1004.8 |
| 20260905052523 | 71 | 109 | 8.0 | 24.0 | 0.00 | 0.54 | 0.50 | 49 | 1004.7 |
| 20260905051526 | 71 | 105 | 8.0 | 26.0 | 0.00 | 0.54 | 0.50 | 49 | 1004.6 |
| 20260905050519 | 71 | 113 | 6.0 | 19.0 | 0.00 | 0.54 | 0.50 | 49 | 1004.6 |
| 20260905045517 | 71 | 80 | 3.0 | 8.0 | 0.00 | 0.54 | 0.50 | 49 | 1004.8 |
| 20260905044536 | 71 | 98 | 9.0 | 21.0 | 0.00 | 0.54 | 0.50 | 49 | 1004.9 |
| 20260905043533 | 71 | 106 | 9.0 | 21.0 | 0.00 | 0.54 | 0.50 | 49 | 1004.3 |
| 20260905042532 | 71 | 114 | 10.0 | 19.0 | 0.00 | 0.54 | 0.50 | 49 | 1004.3 |
| 20260905041530 | 71 | 112 | 9.0 | 22.0 | 0.00 | 0.54 | 0.50 | 49 | 1004.2 |
| 20260905040550 | 71 | 100 | 9.0 | 23.0 | 0.00 | 0.54 | 0.50 | 50 | 1004.3 |
| 20260905035531 | 71 | 93 | 8.0 | 18.0 | 0.00 | 0.54 | 0.50 | 50 | 1004.4 |
| 20260905034524 | 71 | 93 | 8.0 | 17.0 | 0.00 | 0.54 | 0.50 | 50 | 1004.5 |
| 20260905033522 | 71 | 105 | 7.0 | 17.0 | 0.00 | 0.54 | 0.50 | 50 | 1004.5 |
| 20260905032525 | 71 | 105 | 4.0 | 14.0 | 0.00 | 0.54 | 0.50 | 51 | 1004.7 |
| 20260905031539 | 71 | 103 | 9.0 | 21.0 | 0.00 | 0.54 | 0.50 | 51 | 1004.7 |
| 20260905030517 | 71 | 94 | 7.0 | 17.0 | 0.00 | 0.54 | 0.50 | 51 | 1004.9 |
| 20260905025535 | 71 | 114 | 7.0 | 19.0 | 0.00 | 0.54 | 0.50 | 51 | 1004.8 |
| 20260905024533 | 71 | 121 | 7.0 | 19.0 | 0.00 | 0.54 | 0.50 | 52 | 1004.9 |
| 20260905023552 | 71 | 107 | 8.0 | 19.0 | 0.00 | 0.54 | 0.50 | 52 | 1004.9 |
| 20260905022535 | 71 | 108 | 8.0 | 21.0 | 0.00 | 0.54 | 0.50 | 52 | 1004.9 |
| 20260905021528 | 71 | 106 | 13.0 | 29.0 | 0.00 | 0.54 | 0.50 | 52 | 1004.5 |
| 20260905020546 | 71 | 112 | 10.0 | 22.0 | 0.00 | 0.54 | 0.50 | 52 | 1004.6 |
| 20260905015545 | 71 | 104 | 7.0 | 21.0 | 0.00 | 0.54 | 0.50 | 52 | 1004.7 |
| 20260905014543 | 71 | 105 | 9.0 | 24.0 | 0.00 | 0.54 | 0.50 | 52 | 1004.5 |
| 20260905013521 | 71 | 98 | 11.0 | 25.0 | 0.00 | 0.54 | 0.50 | 52 | 1004.4 |
| 20260905012519 | 71 | 104 | 10.0 | 21.0 | 0.00 | 0.54 | 0.50 | 53 | 1004.6 |
| 20260905011517 | 71 | 87 | 10.0 | 17.0 | 0.00 | 0.54 | 0.50 | 53 | 1004.8 |
| 20260905010535 | 71 | 110 | 10.0 | 19.0 | 0.00 | 0.54 | 0.50 | 53 | 1004.8 |
| 20260905005533 | 71 | 98 | 10.0 | 22.0 | 0.00 | 0.54 | 0.50 | 53 | 1004.6 |
| 20260905004532 | 70 | 95 | 10.0 | 29.0 | 0.00 | 0.54 | 0.50 | 54 | 1004.5 |
| 20260905003531 | 70 | 106 | 14.0 | 29.0 | 0.00 | 0.54 | 0.50 | 54 | 1004.5 |
| 20260905002528 | 70 | 100 | 10.0 | 22.0 | 0.00 | 0.54 | 0.50 | 54 | 1004.6 |
| 20260905001547 | 70 | 116 | 9.0 | 19.0 | 0.00 | 0.54 | 0.50 | 54 | 1004.9 |
| 20260905000524 | 70 | 111 | 10.0 | 22.0 | 0.00 | 0.54 | 0.50 | 54 | 1005.0 |
| 20260904235523 | 70 | 115 | 10.0 | 18.0 | 0.00 | 0.54 | 0.50 | 54 | 1005.0 |
| 20260904234520 | 70 | 99 | 9.0 | 18.0 | 0.00 | 0.54 | 0.50 | 55 | 1004.9 |
| 20260904233519 | 70 | 108 | 9.0 | 18.0 | 0.00 | 0.54 | 0.50 | 55 | 1004.9 |
| 20260904232517 | 70 | 111 | 9.0 | 19.0 | 0.00 | 0.54 | 0.50 | 55 | 1004.9 |
| 20260904231535 | 70 | 115 | 11.0 | 21.0 | 0.00 | 0.54 | 0.50 | 55 | 1004.9 |
| 20260904230533 | 70 | 101 | 9.0 | 21.0 | 0.00 | 0.54 | 0.50 | 55 | 1005.1 |
| 20260904225531 | 69 | 115 | 10.0 | 17.0 | 0.00 | 0.54 | 0.50 | 55 | 1004.9 |
| 20260904224530 | 69 | 113 | 8.0 | 21.0 | 0.00 | 0.54 | 0.50 | 55 | 1004.8 |
| 20260904223528 | 69 | 117 | 9.0 | 22.0 | 0.00 | 0.54 | 0.50 | 55 | 1005.0 |
| 20260904222552 | 69 | 112 | 8.0 | 21.0 | 0.00 | 0.54 | 0.50 | 55 | 1005.0 |
| 20260904221529 | 69 | 110 | 9.0 | 21.0 | 0.00 | 0.54 | 0.50 | 56 | 1004.8 |
| 20260904220544 | 69 | 119 | 8.0 | 19.0 | 0.00 | 0.54 | 0.50 | 56 | 1004.7 |
| 20260904215543 | 69 | 118 | 7.0 | 15.0 | 0.00 | 0.54 | 0.50 | 56 | 1004.9 |
| 20260904214520 | 69 | 119 | 9.0 | 21.0 | 0.00 | 0.54 | 0.50 | 56 | 1005.2 |
| 20260904213517 | 68 | 107 | 9.0 | 21.0 | 0.00 | 0.54 | 0.50 | 56 | 1005.1 |
| 20260904212535 | 68 | 109 | 9.0 | 17.0 | 0.01 | 0.54 | 0.50 | 56 | 1005.0 |
| 20260904211535 | 68 | 104 | 10.0 | 23.0 | 0.03 | 0.54 | 0.50 | 56 | 1005.0 |
| 20260904210552 | 68 | 119 | 7.0 | 16.0 | 0.05 | 0.54 | 0.50 | 57 | 1004.8 |
| 20260904205531 | 68 | 97 | 6.0 | 13.0 | 0.07 | 0.54 | 0.50 | 57 | 1004.8 |
| 20260904204529 | 67 | 133 | 7.0 | 16.0 | 0.09 | 0.53 | 0.49 | 57 | 1005.1 |
| 20260904203528 | 67 | 136 | 5.0 | 14.0 | 0.11 | 0.53 | 0.49 | 58 | 1005.1 |
| 20260904202524 | 67 | 132 | 4.0 | 15.0 | 0.11 | 0.53 | 0.49 | 58 | 1005.3 |
| 20260904201522 | 66 | 140 | 7.0 | 16.0 | 0.10 | 0.50 | 0.46 | 58 | 1006.0 |
| 20260904200521 | 65 | 119 | 5.0 | 15.0 | 0.10 | 0.49 | 0.45 | 58 | 1006.3 |
| 20260904195519 | 65 | 125 | 5.0 | 17.0 | 0.08 | 0.46 | 0.43 | 58 | 1006.6 |
| 20260904194517 | 64 | 112 | 6.0 | 13.0 | 0.07 | 0.44 | 0.40 | 58 | 1006.9 |
| 20260904193537 | 63 | 116 | 6.0 | 14.0 | 0.09 | 0.42 | 0.38 | 58 | 1006.4 |
| 20260904192555 | 63 | 125 | 6.0 | 11.0 | 0.09 | 0.41 | 0.37 | 57 | 1006.1 |
| 20260904191533 | 63 | 124 | 5.0 | 11.0 | 0.08 | 0.41 | 0.37 | 57 | 1006.3 |
| 20260904190530 | 63 | 105 | 5.0 | 11.0 | 0.07 | 0.39 | 0.35 | 57 | 1005.9 |
| 20260904185528 | 63 | 114 | 6.0 | 15.0 | 0.06 | 0.38 | 0.34 | 56 | 1006.5 |
| 20260904184526 | 63 | 114 | 7.0 | 15.0 | 0.06 | 0.37 | 0.33 | 56 | 1007.0 |
| 20260904183524 | 63 | 114 | 6.0 | 13.0 | 0.05 | 0.33 | 0.29 | 56 | 1006.8 |
| 20260904181521 | 63 | 121 | 7.0 | 13.0 | 0.10 | 0.32 | 0.28 | 55 | 1007.0 |
| 20260904180540 | 63 | 116 | 7.0 | 16.0 | 0.10 | 0.32 | 0.28 | 55 | 1007.1 |
| 20260904175517 | 64 | 137 | 7.0 | 19.0 | 0.10 | 0.32 | 0.28 | 55 | 1007.2 |
| 20260904174535 | 64 | 120 | 8.0 | 18.0 | 0.09 | 0.31 | 0.27 | 55 | 1007.6 |
| 20260904173533 | 64 | 127 | 9.0 | 22.0 | 0.07 | 0.28 | 0.24 | 55 | 1007.9 |
| 20260904172551 | 64 | 118 | 8.0 | 24.0 | 0.02 | 0.22 | 0.19 | 55 | 1006.8 |
| 20260904171530 | 64 | 138 | 8.0 | 19.0 | 0.06 | 0.22 | 0.18 | 55 | 1006.5 |
| 20260904170528 | 64 | 117 | 10.0 | 18.0 | 0.07 | 0.22 | 0.18 | 54 | 1006.6 |
| 20260904165525 | 64 | 134 | 6.0 | 19.0 | 0.07 | 0.22 | 0.18 | 54 | 1007.8 |
| 20260904164524 | 64 | 135 | 7.0 | 13.0 | 0.07 | 0.22 | 0.18 | 54 | 1008.0 |
| 20260904163523 | 65 | 121 | 9.0 | 23.0 | 0.07 | 0.22 | 0.18 | 54 | 1008.4 |
| 20260904162521 | 65 | 137 | 7.0 | 21.0 | 0.07 | 0.20 | 0.16 | 54 | 1008.9 |
| 20260904161518 | 65 | 134 | 7.0 | 16.0 | 0.07 | 0.17 | 0.13 | 54 | 1009.2 |
| 20260904160558 | 65 | 124 | 8.0 | 25.0 | 0.06 | 0.15 | 0.11 | 54 | 1008.7 |
| 20260904155535 | 65 | 138 | 6.0 | 21.0 | 0.07 | 0.15 | 0.11 | 53 | 1008.9 |